< < Back
Terminal Aerodrome Forecast


Current Version              Previous Versions:   1  2  3  4  5  6  7  8  9  

Terminal Aerodrome Forecast

444
FTUS42 KCAE 272300
TAFAGS
TAF
KAGS 272327Z 2800/2824 VRB03KT P6SM BKN250
     FM281500 07009KT P6SM FEW060 BKN250=



Latest METAR

072
SAUS70 KWBC 280300 RRG
MTRAGS
METAR KAGS 280253Z 00000KT 10SM CLR 14/12 A2988 RMK AO2 SLP117 T01390122
51018


USA.gov is the U.S. government's official web portal to all federal, state and local government web resources and services.